sensor_id;sensor_type;location;lat;lon;timestamp;P1;durP1;ratioP1;P2;durP2;ratioP2
9447;SDS011;4762;48.128;11.376;2023-06-22T00:01:46;3.83;;;1.70;;
9447;SDS011;4762;48.128;11.376;2023-06-22T00:04:03;5.73;;;1.97;;
9447;SDS011;4762;48.128;11.376;2023-06-22T00:06:21;3.80;;;1.67;;
9447;SDS011;4762;48.128;11.376;2023-06-22T00:08:38;4.97;;;1.83;;
9447;SDS011;4762;48.128;11.376;2023-06-22T00:10:56;5.03;;;1.80;;
9447;SDS011;4762;48.128;11.376;2023-06-22T00:13:14;3.97;;;1.70;;
9447;SDS011;4762;48.128;11.376;2023-06-22T00:15:31;3.63;;;1.30;;
9447;SDS011;4762;48.128;11.376;2023-06-22T00:17:48;3.80;;;1.97;;
9447;SDS011;4762;48.128;11.376;2023-06-22T00:20:05;3.57;;;1.37;;
9447;SDS011;4762;48.128;11.376;2023-06-22T00:22:23;4.37;;;1.33;;
9447;SDS011;4762;48.128;11.376;2023-06-22T00:24:40;5.20;;;1.77;;
9447;SDS011;4762;48.128;11.376;2023-06-22T00:26:57;6.17;;;2.30;;
9447;SDS011;4762;48.128;11.376;2023-06-22T00:29:14;3.57;;;1.37;;
9447;SDS011;4762;48.128;11.376;2023-06-22T00:31:31;4.70;;;1.70;;
9447;SDS011;4762;48.128;11.376;2023-06-22T00:33:48;3.40;;;1.57;;
9447;SDS011;4762;48.128;11.376;2023-06-22T00:36:07;5.00;;;1.60;;
9447;SDS011;4762;48.128;11.376;2023-06-22T00:38:24;3.77;;;1.37;;
9447;SDS011;4762;48.128;11.376;2023-06-22T00:40:42;3.03;;;1.20;;
9447;SDS011;4762;48.128;11.376;2023-06-22T00:42:59;3.60;;;1.33;;
9447;SDS011;4762;48.128;11.376;2023-06-22T00:45:16;3.83;;;1.40;;
9447;SDS011;4762;48.128;11.376;2023-06-22T00:47:34;2.93;;;1.27;;
9447;SDS011;4762;48.128;11.376;2023-06-22T00:49:51;4.60;;;2.00;;
9447;SDS011;4762;48.128;11.376;2023-06-22T00:52:08;3.40;;;1.30;;
9447;SDS011;4762;48.128;11.376;2023-06-22T00:54:25;4.70;;;1.77;;
9447;SDS011;4762;48.128;11.376;2023-06-22T00:56:42;4.43;;;1.40;;
9447;SDS011;4762;48.128;11.376;2023-06-22T00:58:59;4.33;;;1.83;;
9447;SDS011;4762;48.128;11.376;2023-06-22T01:01:17;3.60;;;1.10;;
9447;SDS011;4762;48.128;11.376;2023-06-22T01:03:34;4.87;;;1.93;;
9447;SDS011;4762;48.128;11.376;2023-06-22T01:05:51;3.43;;;1.70;;
9447;SDS011;4762;48.128;11.376;2023-06-22T01:08:15;5.13;;;2.17;;
9447;SDS011;4762;48.128;11.376;2023-06-22T01:10:55;5.53;;;1.47;;
9447;SDS011;4762;48.128;11.376;2023-06-22T01:13:16;3.70;;;1.80;;
9447;SDS011;4762;48.128;11.376;2023-06-22T01:15:39;3.50;;;1.70;;
9447;SDS011;4762;48.128;11.376;2023-06-22T01:17:58;3.50;;;1.50;;
9447;SDS011;4762;48.128;11.376;2023-06-22T01:20:15;3.47;;;1.77;;
9447;SDS011;4762;48.128;11.376;2023-06-22T01:22:33;4.20;;;1.60;;
9447;SDS011;4762;48.128;11.376;2023-06-22T01:24:55;3.50;;;1.47;;
9447;SDS011;4762;48.128;11.376;2023-06-22T01:27:17;4.13;;;1.70;;
9447;SDS011;4762;48.128;11.376;2023-06-22T01:29:48;4.23;;;2.03;;
9447;SDS011;4762;48.128;11.376;2023-06-22T01:32:05;6.20;;;2.20;;
9447;SDS011;4762;48.128;11.376;2023-06-22T01:34:22;4.40;;;1.87;;
9447;SDS011;4762;48.128;11.376;2023-06-22T01:36:39;4.33;;;2.00;;
9447;SDS011;4762;48.128;11.376;2023-06-22T01:38:56;6.47;;;2.40;;
9447;SDS011;4762;48.128;11.376;2023-06-22T01:41:13;3.43;;;1.60;;
9447;SDS011;4762;48.128;11.376;2023-06-22T01:43:30;14.30;;;1.80;;
9447;SDS011;4762;48.128;11.376;2023-06-22T01:45:47;4.70;;;1.80;;
9447;SDS011;4762;48.128;11.376;2023-06-22T01:48:05;5.90;;;2.13;;
9447;SDS011;4762;48.128;11.376;2023-06-22T01:50:22;4.23;;;1.60;;
9447;SDS011;4762;48.128;11.376;2023-06-22T01:52:39;4.20;;;1.87;;
9447;SDS011;4762;48.128;11.376;2023-06-22T01:54:56;6.47;;;2.60;;
9447;SDS011;4762;48.128;11.376;2023-06-22T01:57:13;4.33;;;1.77;;
9447;SDS011;4762;48.128;11.376;2023-06-22T01:59:32;5.00;;;2.03;;
9447;SDS011;4762;48.128;11.376;2023-06-22T02:01:53;4.30;;;1.93;;
9447;SDS011;4762;48.128;11.376;2023-06-22T02:04:08;3.37;;;1.40;;
9447;SDS011;4762;48.128;11.376;2023-06-22T02:06:27;4.73;;;1.87;;
9447;SDS011;4762;48.128;11.376;2023-06-22T02:08:47;3.90;;;1.80;;
9447;SDS011;4762;48.128;11.376;2023-06-22T02:11:03;3.50;;;1.47;;
9447;SDS011;4762;48.128;11.376;2023-06-22T02:13:20;6.07;;;2.43;;
9447;SDS011;4762;48.128;11.376;2023-06-22T02:15:37;5.90;;;1.83;;
9447;SDS011;4762;48.128;11.376;2023-06-22T02:17:55;4.00;;;1.97;;
9447;SDS011;4762;48.128;11.376;2023-06-22T02:20:13;3.80;;;1.67;;
9447;SDS011;4762;48.128;11.376;2023-06-22T02:22:30;4.40;;;1.30;;
9447;SDS011;4762;48.128;11.376;2023-06-22T02:24:47;3.00;;;1.30;;
9447;SDS011;4762;48.128;11.376;2023-06-22T02:27:04;4.20;;;2.10;;
9447;SDS011;4762;48.128;11.376;2023-06-22T02:29:21;4.30;;;1.90;;
9447;SDS011;4762;48.128;11.376;2023-06-22T02:31:39;2.80;;;1.23;;
9447;SDS011;4762;48.128;11.376;2023-06-22T02:33:57;3.90;;;1.83;;
9447;SDS011;4762;48.128;11.376;2023-06-22T02:36:13;5.87;;;2.73;;
9447;SDS011;4762;48.128;11.376;2023-06-22T02:38:31;5.13;;;2.43;;
9447;SDS011;4762;48.128;11.376;2023-06-22T02:40:49;4.20;;;1.50;;
9447;SDS011;4762;48.128;11.376;2023-06-22T02:43:06;3.77;;;1.87;;
9447;SDS011;4762;48.128;11.376;2023-06-22T02:45:23;4.17;;;1.33;;
9447;SDS011;4762;48.128;11.376;2023-06-22T02:47:40;4.60;;;2.00;;
9447;SDS011;4762;48.128;11.376;2023-06-22T02:49:57;3.40;;;1.60;;
9447;SDS011;4762;48.128;11.376;2023-06-22T02:52:14;3.77;;;1.60;;
9447;SDS011;4762;48.128;11.376;2023-06-22T02:54:32;5.27;;;1.77;;
9447;SDS011;4762;48.128;11.376;2023-06-22T02:56:49;5.87;;;1.80;;
9447;SDS011;4762;48.128;11.376;2023-06-22T02:59:06;4.17;;;1.73;;
9447;SDS011;4762;48.128;11.376;2023-06-22T03:01:23;3.50;;;1.50;;
9447;SDS011;4762;48.128;11.376;2023-06-22T03:03:40;9.03;;;1.60;;
9447;SDS011;4762;48.128;11.376;2023-06-22T03:05:57;3.87;;;1.70;;
9447;SDS011;4762;48.128;11.376;2023-06-22T03:08:14;3.93;;;1.50;;
9447;SDS011;4762;48.128;11.376;2023-06-22T03:10:31;5.53;;;1.83;;
9447;SDS011;4762;48.128;11.376;2023-06-22T03:12:48;4.60;;;1.90;;
9447;SDS011;4762;48.128;11.376;2023-06-22T03:15:06;6.00;;;2.00;;
9447;SDS011;4762;48.128;11.376;2023-06-22T03:17:23;4.00;;;1.53;;
9447;SDS011;4762;48.128;11.376;2023-06-22T03:19:40;4.90;;;1.83;;
9447;SDS011;4762;48.128;11.376;2023-06-22T03:21:59;6.00;;;2.70;;
9447;SDS011;4762;48.128;11.376;2023-06-22T03:24:16;3.47;;;1.80;;
9447;SDS011;4762;48.128;11.376;2023-06-22T03:26:34;4.83;;;2.03;;
9447;SDS011;4762;48.128;11.376;2023-06-22T03:28:50;3.47;;;1.67;;
9447;SDS011;4762;48.128;11.376;2023-06-22T03:31:07;4.53;;;2.30;;
9447;SDS011;4762;48.128;11.376;2023-06-22T03:33:24;3.77;;;1.60;;
9447;SDS011;4762;48.128;11.376;2023-06-22T03:35:41;5.63;;;1.87;;
9447;SDS011;4762;48.128;11.376;2023-06-22T03:37:59;3.73;;;1.70;;
9447;SDS011;4762;48.128;11.376;2023-06-22T03:40:16;5.67;;;2.70;;
9447;SDS011;4762;48.128;11.376;2023-06-22T03:42:34;4.73;;;1.97;;
9447;SDS011;4762;48.128;11.376;2023-06-22T03:44:51;3.80;;;1.57;;
9447;SDS011;4762;48.128;11.376;2023-06-22T03:47:08;3.47;;;1.80;;
9447;SDS011;4762;48.128;11.376;2023-06-22T03:49:25;5.63;;;3.23;;
9447;SDS011;4762;48.128;11.376;2023-06-22T03:51:42;4.03;;;1.70;;
9447;SDS011;4762;48.128;11.376;2023-06-22T03:53:59;5.80;;;2.30;;
9447;SDS011;4762;48.128;11.376;2023-06-22T03:56:16;5.40;;;2.77;;
9447;SDS011;4762;48.128;11.376;2023-06-22T03:58:34;5.23;;;2.37;;
9447;SDS011;4762;48.128;11.376;2023-06-22T04:00:51;4.03;;;2.10;;
9447;SDS011;4762;48.128;11.376;2023-06-22T04:03:08;3.00;;;1.57;;
9447;SDS011;4762;48.128;11.376;2023-06-22T04:05:25;6.53;;;2.20;;
9447;SDS011;4762;48.128;11.376;2023-06-22T04:07:42;3.77;;;2.00;;
9447;SDS011;4762;48.128;11.376;2023-06-22T04:09:59;3.90;;;2.10;;
9447;SDS011;4762;48.128;11.376;2023-06-22T04:12:16;4.13;;;1.73;;
9447;SDS011;4762;48.128;11.376;2023-06-22T04:14:33;4.20;;;2.03;;
9447;SDS011;4762;48.128;11.376;2023-06-22T04:16:51;4.13;;;2.23;;
9447;SDS011;4762;48.128;11.376;2023-06-22T04:19:08;5.40;;;2.20;;
9447;SDS011;4762;48.128;11.376;2023-06-22T04:21:25;4.57;;;2.27;;
9447;SDS011;4762;48.128;11.376;2023-06-22T04:23:42;7.30;;;2.20;;
9447;SDS011;4762;48.128;11.376;2023-06-22T04:26:00;4.00;;;2.03;;
9447;SDS011;4762;48.128;11.376;2023-06-22T04:28:17;4.67;;;2.30;;
9447;SDS011;4762;48.128;11.376;2023-06-22T04:30:34;4.37;;;2.00;;
9447;SDS011;4762;48.128;11.376;2023-06-22T04:32:51;3.30;;;1.70;;
9447;SDS011;4762;48.128;11.376;2023-06-22T04:35:13;4.50;;;1.87;;
9447;SDS011;4762;48.128;11.376;2023-06-22T04:37:30;5.10;;;2.50;;
9447;SDS011;4762;48.128;11.376;2023-06-22T04:39:47;5.77;;;2.37;;
9447;SDS011;4762;48.128;11.376;2023-06-22T04:42:04;3.43;;;2.20;;
9447;SDS011;4762;48.128;11.376;2023-06-22T04:44:21;3.90;;;1.73;;
9447;SDS011;4762;48.128;11.376;2023-06-22T04:46:40;3.83;;;1.80;;
9447;SDS011;4762;48.128;11.376;2023-06-22T04:48:57;5.10;;;1.90;;
9447;SDS011;4762;48.128;11.376;2023-06-22T04:51:14;8.70;;;2.83;;
9447;SDS011;4762;48.128;11.376;2023-06-22T04:53:17;4.47;;;2.17;;
9447;SDS011;4762;48.128;11.376;2023-06-22T04:55:34;10.17;;;2.70;;
9447;SDS011;4762;48.128;11.376;2023-06-22T04:57:36;5.50;;;2.00;;
9447;SDS011;4762;48.128;11.376;2023-06-22T04:59:38;3.83;;;2.20;;
9447;SDS011;4762;48.128;11.376;2023-06-22T05:01:40;8.33;;;2.80;;
9447;SDS011;4762;48.128;11.376;2023-06-22T05:03:43;5.00;;;2.93;;
9447;SDS011;4762;48.128;11.376;2023-06-22T05:05:45;3.90;;;1.80;;
9447;SDS011;4762;48.128;11.376;2023-06-22T05:07:50;6.07;;;2.60;;
9447;SDS011;4762;48.128;11.376;2023-06-22T05:09:51;6.80;;;2.73;;
9447;SDS011;4762;48.128;11.376;2023-06-22T05:11:55;7.90;;;2.17;;
9447;SDS011;4762;48.128;11.376;2023-06-22T05:13:57;10.63;;;2.47;;
9447;SDS011;4762;48.128;11.376;2023-06-22T05:15:59;5.80;;;2.33;;
9447;SDS011;4762;48.128;11.376;2023-06-22T05:18:03;7.80;;;2.30;;
9447;SDS011;4762;48.128;11.376;2023-06-22T05:20:05;4.17;;;2.50;;
9447;SDS011;4762;48.128;11.376;2023-06-22T05:22:08;6.63;;;2.77;;
9447;SDS011;4762;48.128;11.376;2023-06-22T05:24:10;5.57;;;2.10;;
9447;SDS011;4762;48.128;11.376;2023-06-22T05:26:12;6.27;;;2.90;;
9447;SDS011;4762;48.128;11.376;2023-06-22T05:28:15;6.77;;;3.57;;
9447;SDS011;4762;48.128;11.376;2023-06-22T05:30:17;4.80;;;2.67;;
9447;SDS011;4762;48.128;11.376;2023-06-22T05:32:19;5.83;;;2.87;;
9447;SDS011;4762;48.128;11.376;2023-06-22T05:34:21;4.90;;;2.63;;
9447;SDS011;4762;48.128;11.376;2023-06-22T05:36:24;4.63;;;2.43;;
9447;SDS011;4762;48.128;11.376;2023-06-22T05:38:26;5.20;;;2.90;;
9447;SDS011;4762;48.128;11.376;2023-06-22T05:40:28;14.90;;;3.30;;
9447;SDS011;4762;48.128;11.376;2023-06-22T05:42:31;9.53;;;3.83;;
9447;SDS011;4762;48.128;11.376;2023-06-22T05:44:33;7.27;;;2.57;;
9447;SDS011;4762;48.128;11.376;2023-06-22T05:46:36;4.67;;;2.60;;
9447;SDS011;4762;48.128;11.376;2023-06-22T05:48:38;11.90;;;3.70;;
9447;SDS011;4762;48.128;11.376;2023-06-22T05:50:41;8.77;;;3.70;;
9447;SDS011;4762;48.128;11.376;2023-06-22T05:52:43;5.40;;;3.07;;
9447;SDS011;4762;48.128;11.376;2023-06-22T05:54:45;5.80;;;3.20;;
9447;SDS011;4762;48.128;11.376;2023-06-22T05:56:47;6.20;;;3.40;;
9447;SDS011;4762;48.128;11.376;2023-06-22T05:58:49;4.03;;;2.23;;
9447;SDS011;4762;48.128;11.376;2023-06-22T06:00:52;7.93;;;3.43;;
9447;SDS011;4762;48.128;11.376;2023-06-22T06:02:54;6.37;;;3.57;;
9447;SDS011;4762;48.128;11.376;2023-06-22T06:04:56;4.23;;;2.53;;
9447;SDS011;4762;48.128;11.376;2023-06-22T06:06:58;10.43;;;4.17;;
9447;SDS011;4762;48.128;11.376;2023-06-22T06:09:01;5.10;;;3.10;;
9447;SDS011;4762;48.128;11.376;2023-06-22T06:11:03;7.63;;;3.27;;
9447;SDS011;4762;48.128;11.376;2023-06-22T06:13:05;10.33;;;3.50;;
9447;SDS011;4762;48.128;11.376;2023-06-22T06:15:07;7.10;;;3.13;;
9447;SDS011;4762;48.128;11.376;2023-06-22T06:17:10;8.40;;;2.73;;
9447;SDS011;4762;48.128;11.376;2023-06-22T06:19:12;8.87;;;2.90;;
9447;SDS011;4762;48.128;11.376;2023-06-22T06:21:14;7.17;;;3.30;;
9447;SDS011;4762;48.128;11.376;2023-06-22T06:23:16;4.67;;;2.80;;
9447;SDS011;4762;48.128;11.376;2023-06-22T06:25:18;8.50;;;2.90;;
9447;SDS011;4762;48.128;11.376;2023-06-22T06:27:21;5.87;;;3.10;;
9447;SDS011;4762;48.128;11.376;2023-06-22T06:29:23;4.73;;;2.13;;
9447;SDS011;4762;48.128;11.376;2023-06-22T06:31:25;6.47;;;3.07;;
9447;SDS011;4762;48.128;11.376;2023-06-22T06:33:30;4.37;;;2.33;;
9447;SDS011;4762;48.128;11.376;2023-06-22T06:35:32;5.20;;;2.50;;
9447;SDS011;4762;48.128;11.376;2023-06-22T06:37:36;5.37;;;2.57;;
9447;SDS011;4762;48.128;11.376;2023-06-22T06:39:37;5.57;;;3.30;;
9447;SDS011;4762;48.128;11.376;2023-06-22T06:41:40;7.23;;;2.93;;
9447;SDS011;4762;48.128;11.376;2023-06-22T06:43:42;5.10;;;3.30;;
9447;SDS011;4762;48.128;11.376;2023-06-22T06:45:44;7.43;;;3.30;;
9447;SDS011;4762;48.128;11.376;2023-06-22T06:47:46;7.70;;;3.80;;
9447;SDS011;4762;48.128;11.376;2023-06-22T06:49:48;4.17;;;2.30;;
9447;SDS011;4762;48.128;11.376;2023-06-22T06:51:51;8.20;;;3.80;;
9447;SDS011;4762;48.128;11.376;2023-06-22T06:53:53;5.23;;;2.43;;
9447;SDS011;4762;48.128;11.376;2023-06-22T06:55:55;8.50;;;2.97;;
9447;SDS011;4762;48.128;11.376;2023-06-22T06:57:57;7.00;;;3.13;;
9447;SDS011;4762;48.128;11.376;2023-06-22T07:00:00;7.80;;;2.80;;
9447;SDS011;4762;48.128;11.376;2023-06-22T07:02:02;4.63;;;2.00;;
9447;SDS011;4762;48.128;11.376;2023-06-22T07:04:04;5.70;;;2.67;;
9447;SDS011;4762;48.128;11.376;2023-06-22T07:06:07;7.10;;;3.23;;
9447;SDS011;4762;48.128;11.376;2023-06-22T07:08:09;6.30;;;2.60;;
9447;SDS011;4762;48.128;11.376;2023-06-22T07:10:11;4.70;;;2.80;;
9447;SDS011;4762;48.128;11.376;2023-06-22T07:12:13;8.43;;;3.90;;
9447;SDS011;4762;48.128;11.376;2023-06-22T07:14:15;5.20;;;2.90;;
9447;SDS011;4762;48.128;11.376;2023-06-22T07:16:18;5.47;;;3.20;;
9447;SDS011;4762;48.128;11.376;2023-06-22T07:18:20;7.03;;;2.90;;
9447;SDS011;4762;48.128;11.376;2023-06-22T07:20:22;5.50;;;2.87;;
9447;SDS011;4762;48.128;11.376;2023-06-22T07:22:24;6.77;;;3.37;;
9447;SDS011;4762;48.128;11.376;2023-06-22T07:24:27;15.00;;;3.77;;
9447;SDS011;4762;48.128;11.376;2023-06-22T07:26:29;14.23;;;3.40;;
9447;SDS011;4762;48.128;11.376;2023-06-22T07:28:31;6.73;;;2.70;;
9447;SDS011;4762;48.128;11.376;2023-06-22T07:30:33;6.60;;;3.40;;
9447;SDS011;4762;48.128;11.376;2023-06-22T07:32:36;6.50;;;2.50;;
9447;SDS011;4762;48.128;11.376;2023-06-22T07:34:38;4.37;;;2.60;;
9447;SDS011;4762;48.128;11.376;2023-06-22T07:36:40;9.80;;;3.00;;
9447;SDS011;4762;48.128;11.376;2023-06-22T07:38:42;7.20;;;2.83;;
9447;SDS011;4762;48.128;11.376;2023-06-22T07:40:45;6.40;;;3.20;;
9447;SDS011;4762;48.128;11.376;2023-06-22T07:42:47;5.43;;;2.70;;
9447;SDS011;4762;48.128;11.376;2023-06-22T07:44:50;6.03;;;3.17;;
9447;SDS011;4762;48.128;11.376;2023-06-22T07:46:52;6.10;;;3.23;;
9447;SDS011;4762;48.128;11.376;2023-06-22T07:48:54;6.50;;;3.27;;
9447;SDS011;4762;48.128;11.376;2023-06-22T07:50:56;6.23;;;3.33;;
9447;SDS011;4762;48.128;11.376;2023-06-22T07:52:58;7.50;;;4.03;;
9447;SDS011;4762;48.128;11.376;2023-06-22T07:55:01;5.20;;;2.70;;
9447;SDS011;4762;48.128;11.376;2023-06-22T07:57:03;5.90;;;2.43;;
9447;SDS011;4762;48.128;11.376;2023-06-22T07:59:05;5.40;;;2.63;;
9447;SDS011;4762;48.128;11.376;2023-06-22T08:01:08;6.00;;;3.30;;
9447;SDS011;4762;48.128;11.376;2023-06-22T08:03:10;7.83;;;3.47;;
9447;SDS011;4762;48.128;11.376;2023-06-22T08:05:12;6.43;;;3.10;;
9447;SDS011;4762;48.128;11.376;2023-06-22T08:07:14;5.83;;;2.33;;
9447;SDS011;4762;48.128;11.376;2023-06-22T08:09:16;4.47;;;2.50;;
9447;SDS011;4762;48.128;11.376;2023-06-22T08:11:19;5.90;;;2.80;;
9447;SDS011;4762;48.128;11.376;2023-06-22T08:13:21;6.10;;;2.90;;
9447;SDS011;4762;48.128;11.376;2023-06-22T08:15:23;6.20;;;3.27;;
9447;SDS011;4762;48.128;11.376;2023-06-22T08:17:26;8.63;;;2.50;;
9447;SDS011;4762;48.128;11.376;2023-06-22T08:19:28;7.03;;;2.83;;
9447;SDS011;4762;48.128;11.376;2023-06-22T08:21:30;11.33;;;3.27;;
9447;SDS011;4762;48.128;11.376;2023-06-22T08:25:40;6.00;;;2.67;;
9447;SDS011;4762;48.128;11.376;2023-06-22T08:27:45;8.67;;;3.30;;
9447;SDS011;4762;48.128;11.376;2023-06-22T08:29:46;6.70;;;3.40;;
9447;SDS011;4762;48.128;11.376;2023-06-22T08:31:49;7.10;;;3.77;;
9447;SDS011;4762;48.128;11.376;2023-06-22T08:33:51;6.87;;;3.00;;
9447;SDS011;4762;48.128;11.376;2023-06-22T08:35:54;8.73;;;3.00;;
9447;SDS011;4762;48.128;11.376;2023-06-22T08:37:56;7.80;;;3.10;;
9447;SDS011;4762;48.128;11.376;2023-06-22T08:39:59;4.90;;;2.67;;
9447;SDS011;4762;48.128;11.376;2023-06-22T08:42:01;9.40;;;3.53;;
9447;SDS011;4762;48.128;11.376;2023-06-22T08:44:03;4.40;;;2.10;;
9447;SDS011;4762;48.128;11.376;2023-06-22T08:46:06;6.80;;;3.10;;
9447;SDS011;4762;48.128;11.376;2023-06-22T08:48:08;5.13;;;2.70;;
9447;SDS011;4762;48.128;11.376;2023-06-22T08:50:13;6.87;;;2.40;;
9447;SDS011;4762;48.128;11.376;2023-06-22T08:52:17;4.43;;;2.37;;
9447;SDS011;4762;48.128;11.376;2023-06-22T08:54:19;10.33;;;3.50;;
9447;SDS011;4762;48.128;11.376;2023-06-22T08:56:21;6.67;;;3.10;;
9447;SDS011;4762;48.128;11.376;2023-06-22T08:58:23;10.00;;;3.83;;
9447;SDS011;4762;48.128;11.376;2023-06-22T09:00:26;6.60;;;2.57;;
9447;SDS011;4762;48.128;11.376;2023-06-22T09:02:29;6.13;;;3.00;;
9447;SDS011;4762;48.128;11.376;2023-06-22T09:04:31;14.80;;;3.43;;
9447;SDS011;4762;48.128;11.376;2023-06-22T09:06:33;10.23;;;2.70;;
9447;SDS011;4762;48.128;11.376;2023-06-22T09:08:36;5.90;;;2.43;;
9447;SDS011;4762;48.128;11.376;2023-06-22T09:10:42;4.50;;;2.13;;
9447;SDS011;4762;48.128;11.376;2023-06-22T09:12:48;8.47;;;3.33;;
9447;SDS011;4762;48.128;11.376;2023-06-22T09:14:50;5.70;;;3.50;;
9447;SDS011;4762;48.128;11.376;2023-06-22T09:16:52;6.00;;;2.80;;
9447;SDS011;4762;48.128;11.376;2023-06-22T09:18:54;6.93;;;2.70;;
9447;SDS011;4762;48.128;11.376;2023-06-22T09:20:57;4.87;;;2.63;;
9447;SDS011;4762;48.128;11.376;2023-06-22T09:22:59;6.17;;;3.07;;
9447;SDS011;4762;48.128;11.376;2023-06-22T09:25:01;5.97;;;3.03;;
9447;SDS011;4762;48.128;11.376;2023-06-22T09:27:03;8.83;;;2.83;;
9447;SDS011;4762;48.128;11.376;2023-06-22T09:29:06;6.70;;;3.13;;
9447;SDS011;4762;48.128;11.376;2023-06-22T09:31:08;9.53;;;2.90;;
9447;SDS011;4762;48.128;11.376;2023-06-22T09:33:10;4.50;;;2.57;;
9447;SDS011;4762;48.128;11.376;2023-06-22T09:35:12;6.27;;;3.10;;
9447;SDS011;4762;48.128;11.376;2023-06-22T09:39:23;5.00;;;2.37;;
9447;SDS011;4762;48.128;11.376;2023-06-22T09:41:26;7.00;;;3.30;;
9447;SDS011;4762;48.128;11.376;2023-06-22T09:43:28;6.60;;;3.07;;
9447;SDS011;4762;48.128;11.376;2023-06-22T09:45:30;6.73;;;3.03;;
9447;SDS011;4762;48.128;11.376;2023-06-22T09:47:32;6.87;;;2.93;;
9447;SDS011;4762;48.128;11.376;2023-06-22T09:49:35;8.00;;;3.07;;
9447;SDS011;4762;48.128;11.376;2023-06-22T09:51:37;4.77;;;2.20;;
9447;SDS011;4762;48.128;11.376;2023-06-22T09:53:39;7.97;;;3.60;;
9447;SDS011;4762;48.128;11.376;2023-06-22T09:55:41;7.43;;;3.57;;
9447;SDS011;4762;48.128;11.376;2023-06-22T09:57:44;5.73;;;2.43;;
9447;SDS011;4762;48.128;11.376;2023-06-22T09:59:46;8.00;;;2.70;;
9447;SDS011;4762;48.128;11.376;2023-06-22T10:01:49;6.07;;;2.70;;
9447;SDS011;4762;48.128;11.376;2023-06-22T10:03:52;9.03;;;2.73;;
9447;SDS011;4762;48.128;11.376;2023-06-22T10:05:55;5.40;;;3.03;;
9447;SDS011;4762;48.128;11.376;2023-06-22T10:07:57;6.33;;;3.13;;
9447;SDS011;4762;48.128;11.376;2023-06-22T10:10:00;10.60;;;3.20;;
9447;SDS011;4762;48.128;11.376;2023-06-22T10:12:02;9.10;;;3.03;;
9447;SDS011;4762;48.128;11.376;2023-06-22T10:14:05;5.30;;;2.33;;
9447;SDS011;4762;48.128;11.376;2023-06-22T10:16:08;10.73;;;2.77;;
9447;SDS011;4762;48.128;11.376;2023-06-22T10:18:10;6.10;;;2.63;;
9447;SDS011;4762;48.128;11.376;2023-06-22T10:20:12;8.47;;;3.20;;
9447;SDS011;4762;48.128;11.376;2023-06-22T10:22:14;7.72;;;3.28;;
9447;SDS011;4762;48.128;11.376;2023-06-22T10:24:17;6.13;;;2.47;;
9447;SDS011;4762;48.128;11.376;2023-06-22T10:26:19;6.78;;;2.45;;
9447;SDS011;4762;48.128;11.376;2023-06-22T10:28:21;8.77;;;3.00;;
9447;SDS011;4762;48.128;11.376;2023-06-22T10:30:24;12.57;;;2.97;;
9447;SDS011;4762;48.128;11.376;2023-06-22T10:32:26;5.35;;;2.72;;
9447;SDS011;4762;48.128;11.376;2023-06-22T10:34:29;6.90;;;3.63;;
9447;SDS011;4762;48.128;11.376;2023-06-22T10:36:31;6.97;;;2.80;;
9447;SDS011;4762;48.128;11.376;2023-06-22T10:38:34;7.30;;;3.17;;
9447;SDS011;4762;48.128;11.376;2023-06-22T10:40:36;5.00;;;2.33;;
9447;SDS011;4762;48.128;11.376;2023-06-22T10:42:38;7.15;;;3.08;;
9447;SDS011;4762;48.128;11.376;2023-06-22T10:44:40;8.57;;;2.92;;
9447;SDS011;4762;48.128;11.376;2023-06-22T10:46:44;5.50;;;2.80;;
9447;SDS011;4762;48.128;11.376;2023-06-22T10:48:46;5.47;;;1.90;;
9447;SDS011;4762;48.128;11.376;2023-06-22T10:50:48;11.12;;;2.42;;
9447;SDS011;4762;48.128;11.376;2023-06-22T10:52:50;21.85;;;3.20;;
9447;SDS011;4762;48.128;11.376;2023-06-22T10:54:53;5.30;;;2.60;;
9447;SDS011;4762;48.128;11.376;2023-06-22T10:56:56;8.57;;;3.08;;
9447;SDS011;4762;48.128;11.376;2023-06-22T10:59:02;7.45;;;2.95;;
9447;SDS011;4762;48.128;11.376;2023-06-22T11:01:05;7.40;;;3.22;;
9447;SDS011;4762;48.128;11.376;2023-06-22T11:03:07;6.27;;;2.87;;
9447;SDS011;4762;48.128;11.376;2023-06-22T11:05:09;5.20;;;2.50;;
9447;SDS011;4762;48.128;11.376;2023-06-22T11:07:11;5.03;;;2.30;;
9447;SDS011;4762;48.128;11.376;2023-06-22T11:09:14;7.60;;;3.50;;
9447;SDS011;4762;48.128;11.376;2023-06-22T11:11:17;7.70;;;3.20;;
9447;SDS011;4762;48.128;11.376;2023-06-22T11:13:19;7.10;;;3.00;;
9447;SDS011;4762;48.128;11.376;2023-06-22T11:15:21;6.43;;;2.93;;
9447;SDS011;4762;48.128;11.376;2023-06-22T11:17:24;6.07;;;3.05;;
9447;SDS011;4762;48.128;11.376;2023-06-22T11:19:26;12.75;;;3.15;;
9447;SDS011;4762;48.128;11.376;2023-06-22T11:21:29;5.65;;;2.20;;
9447;SDS011;4762;48.128;11.376;2023-06-22T11:23:31;7.73;;;3.20;;
9447;SDS011;4762;48.128;11.376;2023-06-22T11:25:33;4.63;;;2.23;;
9447;SDS011;4762;48.128;11.376;2023-06-22T11:27:38;6.85;;;3.20;;
9447;SDS011;4762;48.128;11.376;2023-06-22T11:29:40;5.93;;;2.67;;
9447;SDS011;4762;48.128;11.376;2023-06-22T11:31:43;14.02;;;3.42;;
9447;SDS011;4762;48.128;11.376;2023-06-22T11:33:45;6.35;;;2.83;;
9447;SDS011;4762;48.128;11.376;2023-06-22T11:35:47;9.82;;;3.40;;
9447;SDS011;4762;48.128;11.376;2023-06-22T11:37:49;4.90;;;2.25;;
9447;SDS011;4762;48.128;11.376;2023-06-22T11:39:52;6.55;;;3.42;;
9447;SDS011;4762;48.128;11.376;2023-06-22T11:41:54;4.87;;;2.58;;
9447;SDS011;4762;48.128;11.376;2023-06-22T11:43:56;5.90;;;2.85;;
9447;SDS011;4762;48.128;11.376;2023-06-22T11:45:59;6.65;;;2.70;;
9447;SDS011;4762;48.128;11.376;2023-06-22T11:48:01;5.78;;;2.97;;
9447;SDS011;4762;48.128;11.376;2023-06-22T11:50:03;11.20;;;2.70;;
9447;SDS011;4762;48.128;11.376;2023-06-22T11:52:06;6.60;;;2.97;;
9447;SDS011;4762;48.128;11.376;2023-06-22T11:54:08;5.32;;;2.80;;
9447;SDS011;4762;48.128;11.376;2023-06-22T11:56:10;6.15;;;2.50;;
9447;SDS011;4762;48.128;11.376;2023-06-22T11:58:12;5.15;;;2.60;;
9447;SDS011;4762;48.128;11.376;2023-06-22T12:00:15;5.25;;;2.65;;
9447;SDS011;4762;48.128;11.376;2023-06-22T12:02:17;6.60;;;2.65;;
9447;SDS011;4762;48.128;11.376;2023-06-22T12:04:20;11.18;;;3.40;;
9447;SDS011;4762;48.128;11.376;2023-06-22T12:06:22;6.10;;;2.45;;
9447;SDS011;4762;48.128;11.376;2023-06-22T12:08:24;4.70;;;2.17;;
9447;SDS011;4762;48.128;11.376;2023-06-22T12:10:26;7.12;;;2.28;;
9447;SDS011;4762;48.128;11.376;2023-06-22T12:12:29;7.18;;;2.40;;
9447;SDS011;4762;48.128;11.376;2023-06-22T12:14:33;5.85;;;2.55;;
9447;SDS011;4762;48.128;11.376;2023-06-22T12:16:37;9.05;;;2.92;;
9447;SDS011;4762;48.128;11.376;2023-06-22T12:18:39;19.67;;;2.78;;
9447;SDS011;4762;48.128;11.376;2023-06-22T12:20:41;7.87;;;2.85;;
9447;SDS011;4762;48.128;11.376;2023-06-22T12:22:44;8.93;;;3.28;;
9447;SDS011;4762;48.128;11.376;2023-06-22T12:24:46;6.62;;;2.65;;
9447;SDS011;4762;48.128;11.376;2023-06-22T12:26:48;5.95;;;3.17;;
9447;SDS011;4762;48.128;11.376;2023-06-22T12:28:51;7.75;;;2.62;;
9447;SDS011;4762;48.128;11.376;2023-06-22T12:30:53;8.73;;;3.15;;
9447;SDS011;4762;48.128;11.376;2023-06-22T12:32:55;6.37;;;3.08;;
9447;SDS011;4762;48.128;11.376;2023-06-22T12:34:57;5.37;;;1.77;;
9447;SDS011;4762;48.128;11.376;2023-06-22T12:37:00;4.78;;;2.30;;
9447;SDS011;4762;48.128;11.376;2023-06-22T12:39:02;7.68;;;2.83;;
9447;SDS011;4762;48.128;11.376;2023-06-22T12:41:04;8.18;;;3.00;;
9447;SDS011;4762;48.128;11.376;2023-06-22T12:43:07;4.47;;;2.15;;
9447;SDS011;4762;48.128;11.376;2023-06-22T12:45:10;6.65;;;3.20;;
9447;SDS011;4762;48.128;11.376;2023-06-22T12:47:12;10.77;;;3.78;;
9447;SDS011;4762;48.128;11.376;2023-06-22T12:49:14;6.10;;;2.55;;
9447;SDS011;4762;48.128;11.376;2023-06-22T12:51:20;7.85;;;3.83;;
9447;SDS011;4762;48.128;11.376;2023-06-22T12:53:22;6.45;;;2.85;;
9447;SDS011;4762;48.128;11.376;2023-06-22T12:55:25;9.25;;;3.42;;
9447;SDS011;4762;48.128;11.376;2023-06-22T12:57:27;12.80;;;3.33;;
9447;SDS011;4762;48.128;11.376;2023-06-22T12:59:29;6.30;;;2.87;;
9447;SDS011;4762;48.128;11.376;2023-06-22T13:01:31;9.73;;;2.97;;
9447;SDS011;4762;48.128;11.376;2023-06-22T13:03:34;8.80;;;3.23;;
9447;SDS011;4762;48.128;11.376;2023-06-22T13:05:36;7.13;;;2.90;;